createdAt,value
2019-01-08T00:04:09.018Z,24.02
2019-01-08T00:10:04.141Z,18.78
2019-01-08T00:15:59.015Z,23.47
2019-01-08T00:21:54.020Z,26.85
2019-01-08T00:27:49.015Z,29.83
2019-01-08T00:33:44.066Z,31.69
2019-01-08T00:39:39.024Z,32.34
2019-01-08T00:45:34.036Z,37.2
2019-01-08T00:51:29.041Z,36.13
2019-01-08T00:57:24.043Z,40.53
2019-01-08T01:03:19.061Z,25.48
2019-01-08T01:09:14.109Z,27.44
2019-01-08T01:15:09.035Z,30.02
2019-01-08T01:21:04.134Z,28.84
2019-01-08T01:26:59.135Z,31.14
2019-01-08T01:32:54.037Z,28.27
2019-01-08T01:38:49.083Z,26.74
2019-01-08T01:44:44.079Z,31.35
2019-01-08T01:50:39.085Z,30.83
2019-01-08T01:56:34.071Z,29.63
2019-01-08T02:02:29.073Z,36.53
2019-01-08T02:08:24.111Z,29.47
2019-01-08T02:14:19.086Z,25.91
2019-01-08T02:20:14.171Z,25.65
2019-01-08T02:26:09.085Z,26.16
2019-01-08T02:32:04.096Z,26.85
2019-01-08T02:37:59.097Z,25.05
2019-01-08T02:43:54.129Z,25.06
2019-01-08T02:49:49.106Z,27.5
2019-01-08T02:55:44.101Z,26.38
2019-01-08T03:01:39.141Z,26.93
2019-01-08T03:07:34.095Z,25.46
2019-01-08T03:13:29.125Z,24.68
2019-01-08T03:19:24.144Z,26.31
2019-01-08T03:25:19.105Z,24.65
2019-01-08T03:31:14.106Z,24.83
2019-01-08T03:37:09.125Z,24.08
2019-01-08T03:43:04.118Z,24.56
2019-01-08T03:48:59.124Z,26.48
2019-01-08T03:54:54.123Z,24.5
2019-01-08T04:00:49.140Z,23.38
2019-01-08T04:06:44.142Z,22.67
2019-01-08T04:12:39.116Z,22.27
2019-01-08T04:18:34.150Z,26.5
2019-01-08T04:24:29.171Z,22.58
2019-01-08T04:30:24.134Z,21.1
2019-01-08T04:36:19.184Z,21.93
2019-01-08T04:42:14.178Z,19.32
2019-01-08T04:48:09.168Z,21.15
2019-01-08T04:54:04.147Z,19.18
2019-01-08T04:59:59.338Z,19.33
2019-01-08T05:05:54.167Z,19.73
2019-01-08T05:11:49.214Z,21.32
2019-01-08T05:17:44.158Z,22.26
2019-01-08T05:23:39.167Z,21.3
2019-01-08T05:29:34.170Z,22.84
2019-01-08T05:35:29.176Z,24.3
2019-01-08T05:41:24.208Z,25.96
2019-01-08T05:47:19.213Z,80.27
2019-01-08T05:53:14.210Z,56.58
2019-01-08T05:59:09.183Z,34.02
2019-01-08T06:05:04.204Z,25.97
2019-01-08T06:10:59.210Z,24.6
2019-01-08T06:16:54.200Z,22.02
2019-01-08T06:22:49.233Z,24.08
2019-01-08T06:28:44.205Z,24.27
2019-01-08T06:34:39.202Z,26.78
2019-01-08T06:40:34.292Z,24.31
2019-01-08T06:46:29.190Z,25.07
2019-01-08T06:52:24.233Z,30.59
2019-01-08T06:58:19.212Z,30
2019-01-08T07:04:14.217Z,30.86
2019-01-08T07:10:09.203Z,27.02
2019-01-08T07:16:04.226Z,30
2019-01-08T07:21:59.211Z,33.07
2019-01-08T07:27:54.294Z,29.93
2019-01-08T07:33:49.285Z,37.04
2019-01-08T07:39:44.264Z,43.67
2019-01-08T07:45:39.255Z,51.07
2019-01-08T07:51:34.217Z,51.89
2019-01-08T07:57:29.237Z,57.27
2019-01-08T08:03:24.245Z,60.37
2019-01-08T08:09:19.247Z,69.3
2019-01-08T08:15:14.283Z,59.93
2019-01-08T08:21:09.260Z,59.21
2019-01-08T08:27:04.267Z,62.93
2019-01-08T08:32:59.290Z,62.37
2019-01-08T08:38:54.267Z,62.93
2019-01-08T08:44:49.282Z,52.3
2019-01-08T08:50:44.279Z,50.05
2019-01-08T08:56:39.320Z,53.06
2019-01-08T09:02:34.280Z,50.08
2019-01-08T09:08:29.278Z,50.42
2019-01-08T09:14:24.305Z,52.84
2019-01-08T09:20:19.338Z,50.58
2019-01-08T09:26:14.311Z,51.57
2019-01-08T09:32:09.322Z,60.47
2019-01-08T09:38:04.333Z,75.63
2019-01-08T09:43:59.352Z,83.43
2019-01-08T09:49:54.280Z,74.66
2019-01-08T09:55:49.304Z,93.53
2019-01-08T10:01:44.319Z,87.7
2019-01-08T10:07:39.331Z,74.61
2019-01-08T10:13:34.304Z,106.42
2019-01-08T10:19:29.317Z,135.38
2019-01-08T10:25:24.337Z,158.71
2019-01-08T10:31:19.346Z,119.05
2019-01-08T10:37:14.318Z,157.73
2019-01-08T10:43:09.372Z,136.04
2019-01-08T10:49:04.329Z,159.41
2019-01-08T10:54:59.337Z,116.08
2019-01-08T11:00:54.342Z,73.28
2019-01-08T11:06:49.332Z,80.64
2019-01-08T11:12:44.341Z,54.52
2019-01-08T11:18:39.343Z,110.84
2019-01-08T11:24:34.389Z,125.78
2019-01-08T11:30:29.335Z,108.03
2019-01-08T11:36:24.362Z,111.29
2019-01-08T11:42:19.339Z,105.05
2019-01-08T11:48:14.367Z,101.95
2019-01-08T11:54:09.359Z,102.11
2019-01-08T12:00:04.364Z,103.31
2019-01-08T12:05:59.398Z,96.93
2019-01-08T12:11:54.385Z,97.58
2019-01-08T12:17:49.428Z,88.13
2019-01-08T12:23:44.398Z,89.11
2019-01-08T12:29:39.406Z,96.67
2019-01-08T12:35:34.388Z,102.75
2019-01-08T12:41:29.442Z,114.72
2019-01-08T12:47:24.464Z,104.74
2019-01-08T12:53:19.405Z,103.9
2019-01-08T12:59:14.408Z,105.81
2019-01-08T13:05:09.429Z,100.08
2019-01-08T13:11:04.415Z,94.25
2019-01-08T13:16:59.409Z,97.41
2019-01-08T13:22:54.425Z,94.61
2019-01-08T13:28:49.437Z,111.04
2019-01-08T13:34:44.451Z,91.6
2019-01-08T13:40:39.433Z,89.67
2019-01-08T13:46:34.436Z,91.01
2019-01-08T13:52:29.422Z,93.06
2019-01-08T13:58:24.484Z,94.15
2019-01-08T14:04:19.458Z,100.98
2019-01-08T14:10:14.442Z,84.79
2019-01-08T14:16:09.450Z,80.14
2019-01-08T14:22:04.455Z,88.24
2019-01-08T14:27:59.452Z,103.94
2019-01-08T14:33:54.441Z,90.23
2019-01-08T14:39:49.461Z,96.14
2019-01-08T14:45:44.435Z,101.56
2019-01-08T14:51:39.474Z,108.24
2019-01-08T14:57:34.521Z,114.53
2019-01-08T15:03:29.504Z,104.04
2019-01-08T15:09:24.451Z,105.37
2019-01-08T15:15:19.469Z,98.29
2019-01-08T15:21:14.449Z,91.83
2019-01-08T15:27:09.458Z,96.37
2019-01-08T15:33:04.463Z,101.76
2019-01-08T15:38:59.484Z,114.48
2019-01-08T15:44:54.468Z,118.36
2019-01-08T15:50:49.495Z,105.82
2019-01-08T15:56:44.511Z,105.08
2019-01-08T16:02:39.487Z,101.95
2019-01-08T16:08:34.498Z,105.41
2019-01-08T16:14:29.488Z,109.01
2019-01-08T16:20:24.488Z,113.5
2019-01-08T16:26:19.532Z,110.86
2019-01-08T16:32:14.498Z,113.28
2019-01-08T16:38:09.512Z,104.74
2019-01-08T16:44:04.502Z,119.91
2019-01-08T16:49:59.489Z,118.73
2019-01-08T16:55:54.558Z,133.72
2019-01-08T17:01:49.507Z,134.37
2019-01-08T17:07:44.505Z,159.36
2019-01-08T17:13:39.535Z,135.34
2019-01-08T17:19:34.526Z,123.62
2019-01-08T17:25:29.558Z,130.53
2019-01-08T17:31:24.560Z,144.33
2019-01-08T17:37:19.554Z,127.44
2019-01-08T17:43:14.584Z,127.16
2019-01-08T17:49:09.610Z,134.28
2019-01-08T17:55:04.545Z,138.8
2019-01-08T18:00:59.575Z,129.13
2019-01-08T18:06:54.558Z,136.44
2019-01-08T18:12:49.559Z,146
2019-01-08T18:18:44.548Z,134.06
2019-01-08T18:24:39.577Z,120.84
2019-01-08T18:30:34.558Z,127.22
2019-01-08T18:36:29.590Z,118.7
2019-01-08T18:42:24.568Z,132.18
2019-01-08T18:48:19.585Z,130.98
2019-01-08T18:54:14.578Z,128.18
2019-01-08T19:00:09.597Z,126.98
2019-01-08T19:06:04.568Z,125.69
2019-01-08T19:11:59.596Z,124.77
2019-01-08T19:17:54.627Z,125.62
2019-01-08T19:23:49.577Z,132.22
2019-01-08T19:29:44.599Z,118.68
2019-01-08T19:35:39.656Z,118.49
2019-01-08T19:41:34.606Z,119.61
2019-01-08T19:47:29.598Z,129.34
2019-01-08T19:53:24.611Z,121.54
2019-01-08T19:59:19.619Z,118.64
2019-01-08T20:05:14.657Z,109.79
2019-01-08T20:11:09.753Z,114.45
2019-01-08T20:17:04.608Z,112.47
2019-01-08T20:22:59.644Z,113.97
2019-01-08T20:28:54.625Z,122.23
2019-01-08T20:34:49.638Z,124.68
2019-01-08T20:40:44.629Z,136.92
2019-01-08T20:46:39.661Z,133.37
2019-01-08T20:52:34.624Z,134.62
2019-01-08T20:58:29.653Z,137.23
2019-01-08T21:04:24.649Z,141.42
2019-01-08T21:10:19.649Z,129.7
2019-01-08T21:16:14.656Z,124.94
2019-01-08T21:22:09.649Z,123.31
2019-01-08T21:28:04.674Z,123
2019-01-08T21:33:59.669Z,152.7
2019-01-08T21:39:54.657Z,129.18
2019-01-08T21:45:49.664Z,101.9
2019-01-08T21:51:44.643Z,93.67
2019-01-08T21:57:39.688Z,80.97
2019-01-08T22:03:34.656Z,75.68
2019-01-08T22:09:29.706Z,49.51
2019-01-08T22:15:24.685Z,64.59
2019-01-08T22:21:19.707Z,67.76
2019-01-08T22:27:14.689Z,111.41
2019-01-08T22:33:09.753Z,129.74
2019-01-08T22:39:04.686Z,111.31
2019-01-08T22:44:59.711Z,169.03
2019-01-08T22:50:54.695Z,128.99
2019-01-08T22:56:49.693Z,115.77
2019-01-08T23:02:44.697Z,96.15
2019-01-08T23:08:39.691Z,115.05
2019-01-08T23:14:34.707Z,126.61
2019-01-08T23:20:29.731Z,125.6
2019-01-08T23:26:24.725Z,118.92
2019-01-08T23:32:19.719Z,96.48
2019-01-08T23:38:14.702Z,68.77
2019-01-08T23:44:09.752Z,51.16
2019-01-08T23:50:04.817Z,38.91
2019-01-08T23:55:59.715Z,61.54
